Time;durP1;ratioP1;P1;durP2;ratioP2;P2;SDS_P1;SDS_P2;PMS_P1;PMS_P2;Temp;Humidity;BMP_temperature;BMP_pressure;BME280_temperature;BME280_humidity;BME280_pressure;Samples;Min_cycle;Max_cycle;Signal;HPM_P1;HPM_P2
2021/11/02 00:01:09;;;;;;;4.00;2.10;;;14.90;89.60;;;;;;5100249;28;20886;-46
2021/11/02 00:03:36;;;;;;;4.63;2.80;;;14.90;89.50;;;;;;5099689;28;20472;-46
2021/11/02 00:06:02;;;;;;;2.67;1.70;;;14.90;89.40;;;;;;5100021;28;20426;-46
2021/11/02 00:08:28;;;;;;;2.53;1.90;;;14.90;89.40;;;;;;5100232;28;20410;-47
2021/11/02 00:10:54;;;;;;;2.43;1.83;;;15.00;89.30;;;;;;5099661;28;20706;-46
2021/11/02 00:13:25;;;;;;;1.73;1.50;;;15.00;89.20;;;;;;5099716;28;20404;-46
2021/11/02 00:15:53;;;;;;;3.00;1.80;;;15.00;89.00;;;;;;5082856;28;20666;-46
2021/11/02 00:18:24;;;;;;;2.17;1.33;;;15.00;89.10;;;;;;5100032;28;20862;-46
2021/11/02 00:20:58;;;;;;;5.20;1.70;;;15.00;89.10;;;;;;5100492;28;20463;-46
2021/11/02 00:23:23;;;;;;;3.63;1.93;;;15.00;89.00;;;;;;5100444;28;20463;-46
2021/11/02 00:25:49;;;;;;;6.23;1.87;;;15.00;88.80;;;;;;5100641;28;20781;-46
2021/11/02 00:28:15;;;;;;;2.37;1.40;;;15.00;88.70;;;;;;5100750;28;20494;-46
2021/11/02 00:30:40;;;;;;;2.00;1.50;;;15.00;88.60;;;;;;5099983;28;20239;-46
2021/11/02 00:33:06;;;;;;;2.30;1.60;;;15.00;88.50;;;;;;5099658;28;20185;-46
2021/11/02 00:35:32;;;;;;;2.20;1.60;;;15.00;88.40;;;;;;5082413;28;20588;-46
2021/11/02 00:37:57;;;;;;;3.70;1.80;;;15.00;88.20;;;;;;5100161;28;20191;-46
2021/11/02 00:40:23;;;;;;;2.37;1.60;;;15.00;88.10;;;;;;5100122;28;20185;-46
2021/11/02 00:42:54;;;;;;;2.20;1.83;;;15.00;88.10;;;;;;5098717;28;20490;-46
2021/11/02 00:45:28;;;;;;;1.73;1.50;;;15.00;88.10;;;;;;5098013;28;20265;-45
2021/11/02 00:47:54;;;;;;;2.87;1.83;;;15.00;88.10;;;;;;5097940;28;20448;-45
2021/11/02 00:50:32;;;;;;;3.03;1.80;;;15.00;88.00;;;;;;5080974;28;20454;-46
2021/11/02 00:52:58;;;;;;;2.40;1.50;;;15.00;88.10;;;;;;5081100;28;20842;-47
2021/11/02 00:55:24;;;;;;;1.70;1.60;;;15.00;88.00;;;;;;5098777;28;20421;-47
2021/11/02 00:57:49;;;;;;;2.33;1.60;;;15.00;87.90;;;;;;5099587;28;20426;-47
2021/11/02 01:00:17;;;;;;;2.90;1.60;;;15.00;87.80;;;;;;5100135;28;20198;-47
2021/11/02 01:02:43;;;;;;;2.73;1.73;;;15.00;87.70;;;;;;5099828;28;20210;-47
2021/11/02 01:05:12;;;;;;;2.77;1.83;;;15.00;87.70;;;;;;5099288;28;20451;-47
2021/11/02 01:07:38;;;;;;;2.10;1.57;;;15.00;87.60;;;;;;5099916;28;20402;-47
2021/11/02 01:10:12;;;;;;;3.50;2.23;;;15.00;87.60;;;;;;5099755;28;20705;-47
2021/11/02 01:12:48;;;;;;;2.43;1.70;;;15.00;87.80;;;;;;5099949;28;20409;-47
2021/11/02 01:15:18;;;;;;;2.30;1.30;;;15.10;87.80;;;;;;5099886;28;20434;-47
2021/11/02 01:17:44;;;;;;;3.63;1.80;;;15.10;87.70;;;;;;5099502;28;20429;-47
2021/11/02 01:20:16;;;;;;;1.90;1.43;;;15.10;87.60;;;;;;5099733;28;20413;-47
2021/11/02 01:22:43;;;;;;;3.33;1.30;;;15.10;87.50;;;;;;5081852;28;20240;-46
2021/11/02 01:25:09;;;;;;;1.87;1.50;;;15.10;87.40;;;;;;5099273;28;20497;-47
2021/11/02 01:27:36;;;;;;;3.70;1.40;;;15.10;87.40;;;;;;5099585;28;20437;-47
2021/11/02 01:30:03;;;;;;;1.87;1.53;;;15.10;87.40;;;;;;5099188;28;20481;-47
2021/11/02 01:32:29;;;;;;;2.77;1.77;;;15.10;87.50;;;;;;5099273;28;20504;-47
2021/11/02 01:34:55;;;;;;;2.97;1.60;;;15.10;87.50;;;;;;5099504;28;20434;-47
2021/11/02 01:37:20;;;;;;;2.80;1.60;;;15.10;87.40;;;;;;5081075;28;20516;-47
2021/11/02 01:39:46;;;;;;;1.90;1.20;;;15.10;87.30;;;;;;5081302;28;20218;-47
2021/11/02 01:42:12;;;;;;;1.70;1.27;;;15.10;87.20;;;;;;5099030;28;20227;-47
2021/11/02 01:44:37;;;;;;;4.23;2.30;;;15.10;86.90;;;;;;5098855;28;20457;-47
2021/11/02 01:47:05;;;;;;;2.00;1.70;;;15.00;86.60;;;;;;5098240;28;20188;-47
2021/11/02 01:49:31;;;;;;;3.07;2.17;;;14.90;86.40;;;;;;5097396;28;20211;-47
2021/11/02 01:52:06;;;;;;;2.10;1.70;;;14.90;86.70;;;;;;5097394;28;20406;-47
2021/11/02 01:54:32;;;;;;;2.40;1.33;;;14.80;86.80;;;;;;5097169;28;20461;-47
2021/11/02 01:56:57;;;;;;;2.77;1.57;;;14.80;87.10;;;;;;5096853;28;20829;-47
2021/11/02 01:59:26;;;;;;;1.67;1.27;;;14.70;87.30;;;;;;5062669;28;20412;-47
2021/11/02 02:02:39;;;;;;;3.20;2.07;;;14.70;87.60;;;;;;5098717;28;20243;-47
2021/11/02 02:05:23;;;;;;;2.27;1.20;;;14.70;87.50;;;;;;5089913;28;20584;-47
2021/11/02 02:07:57;;;;;;;1.70;1.27;;;14.70;87.60;;;;;;5081187;28;20414;-47
2021/11/02 02:10:47;;;;;;;2.60;1.40;;;14.70;87.60;;;;;;5098785;28;20431;-47
2021/11/02 02:13:48;;;;;;;2.47;1.10;;;14.80;88.10;;;;;;5098809;28;20680;-47
2021/11/02 02:16:26;;;;;;;2.53;1.30;;;14.80;88.30;;;;;;5082148;28;20439;-47
2021/11/02 02:19:03;;;;;;;3.07;1.30;;;14.80;88.20;;;;;;5064949;28;20429;-47
2021/11/02 02:21:54;;;;;;;3.00;1.60;;;14.80;88.10;;;;;;5081307;28;20433;-47
2021/11/02 02:24:39;;;;;;;2.20;1.30;;;14.80;87.80;;;;;;5098034;28;20480;-47
2021/11/02 02:30:27;;;;;;;1.67;1.27;;;14.80;87.50;;;;;;5097798;28;20449;-47
2021/11/02 02:32:53;;;;;;;2.43;1.47;;;14.80;87.30;;;;;;5098542;28;20460;-47
2021/11/02 02:35:20;;;;;;;3.43;1.30;;;14.80;87.30;;;;;;5078772;28;20450;-47
2021/11/02 02:37:48;;;;;;;3.50;1.80;;;14.70;87.20;;;;;;5080256;28;20407;-47
2021/11/02 02:40:14;;;;;;;2.20;1.30;;;14.70;87.10;;;;;;5080405;28;20421;-47
2021/11/02 02:42:41;;;;;;;2.30;1.43;;;14.70;87.10;;;;;;5079440;28;20467;-47
2021/11/02 02:45:08;;;;;;;2.80;1.30;;;14.70;87.20;;;;;;5096976;28;20708;-47
2021/11/02 02:47:37;;;;;;;3.50;1.60;;;14.70;87.20;;;;;;5079486;28;20412;-47
2021/11/02 02:50:07;;;;;;;2.73;1.40;;;14.60;86.90;;;;;;5096973;28;20497;-47
2021/11/02 02:52:37;;;;;;;3.03;1.27;;;14.60;87.00;;;;;;5079334;28;20426;-47
2021/11/02 02:55:04;;;;;;;2.30;1.40;;;14.60;87.10;;;;;;5079251;28;20707;-47
2021/11/02 02:57:30;;;;;;;4.80;2.60;;;14.60;87.10;;;;;;5098046;28;20435;-47
2021/11/02 02:59:56;;;;;;;3.13;1.60;;;14.60;87.00;;;;;;5080079;28;20701;-46
2021/11/02 03:02:29;;;;;;;2.97;1.63;;;14.50;86.70;;;;;;5097503;28;20839;-46
2021/11/02 03:04:55;;;;;;;2.30;1.70;;;14.50;87.00;;;;;;5096521;28;20797;-46
2021/11/02 03:07:22;;;;;;;1.93;1.40;;;14.40;86.90;;;;;;5079352;28;20528;-46
2021/11/02 03:09:48;;;;;;;2.10;1.50;;;14.40;86.60;;;;;;5078906;28;20439;-46
2021/11/02 03:12:20;;;;;;;3.57;1.60;;;14.40;86.50;;;;;;5097536;28;20453;-45
2021/11/02 03:17:41;;;;;;;1.80;1.60;;;14.30;86.50;;;;;;5081446;28;20490;-46
2021/11/02 05:48:03;;;;;;;1.73;1.17;;;14.10;85.10;;;;;;5096289;28;20868;-45
2021/11/02 05:56:13;;;;;;;1.93;1.30;;;14.00;84.60;;;;;;5098197;28;20775;-42
2021/11/02 06:07:10;;;;;;;1.80;1.30;;;13.90;84.50;;;;;;5042664;28;20853;-44
2021/11/02 06:09:48;;;;;;;1.50;1.10;;;13.90;84.80;;;;;;5091774;28;20723;-45
2021/11/02 06:29:17;;;;;;;1.80;1.30;;;14.30;84.30;;;;;;5101503;28;20428;-44
2021/11/02 06:31:52;;;;;;;1.97;1.10;;;14.40;84.30;;;;;;5117500;28;20926;-45
2021/11/02 07:00:44;;;;;;;2.23;1.00;;;15.50;81.60;;;;;;5100378;28;20401;-45
2021/11/02 07:17:27;;;;;;;1.40;0.80;;;16.70;77.70;;;;;;5115926;28;20479;-45
2021/11/02 08:48:02;;;;;;;1.93;0.87;;;19.30;61.50;;;;;;5018790;28;20470;-43
2021/11/02 08:50:33;;;;;;;1.70;0.90;;;19.00;62.50;;;;;;5088725;28;20415;-43
2021/11/02 08:53:04;;;;;;;2.23;0.90;;;18.70;63.40;;;;;;5099178;28;20446;-44
2021/11/02 08:55:30;;;;;;;1.00;0.70;;;18.40;64.10;;;;;;5098988;28;20447;-45
2021/11/02 08:57:56;;;;;;;1.80;0.80;;;18.30;64.50;;;;;;5097861;28;20776;-45
2021/11/02 09:00:23;;;;;;;2.90;1.30;;;18.00;64.50;;;;;;5097846;28;20207;-43
2021/11/02 09:02:59;;;;;;;2.30;1.17;;;17.70;64.90;;;;;;5097926;28;20528;-44
2021/11/02 09:05:30;;;;;;;1.40;0.80;;;17.50;65.60;;;;;;5080802;28;20486;-45
2021/11/02 09:07:58;;;;;;;2.50;1.40;;;17.30;66.20;;;;;;5096101;28;20493;-47
2021/11/02 09:10:25;;;;;;;1.87;0.90;;;17.10;66.80;;;;;;5099298;28;20482;-43
2021/11/02 09:12:54;;;;;;;3.53;1.73;;;17.00;67.40;;;;;;5081350;28;20441;-46
2021/11/02 09:15:40;;;;;;;2.17;1.17;;;16.80;67.70;;;;;;5098301;28;20488;-44
2021/11/02 09:18:21;;;;;;;1.73;1.00;;;16.70;69.00;;;;;;5078223;28;20441;-45
2021/11/02 09:20:47;;;;;;;1.50;1.00;;;16.70;69.60;;;;;;5078398;28;20429;-44
2021/11/02 09:23:13;;;;;;;2.87;1.30;;;16.70;70.10;;;;;;5079249;28;20565;-42
2021/11/02 09:25:39;;;;;;;1.50;0.90;;;16.70;70.30;;;;;;5096874;28;20516;-44
2021/11/02 09:28:10;;;;;;;2.93;0.87;;;16.70;69.60;;;;;;5096320;28;20267;-44
2021/11/02 09:30:36;;;;;;;2.07;1.17;;;16.60;69.70;;;;;;5104186;28;20878;-44
2021/11/02 09:33:02;;;;;;;1.90;0.73;;;16.50;69.90;;;;;;5117886;28;20438;-43
2021/11/02 09:35:31;;;;;;;3.13;0.70;;;16.50;70.50;;;;;;5117419;28;20528;-41
2021/11/02 09:38:00;;;;;;;2.37;1.37;;;16.60;71.90;;;;;;5100369;28;20439;-42
2021/11/02 09:40:29;;;;;;;2.70;1.10;;;16.70;72.40;;;;;;5099659;28;20444;-40
2021/11/02 09:43:01;;;;;;;2.17;1.00;;;16.80;72.20;;;;;;5119193;28;20768;-41
2021/11/02 09:45:30;;;;;;;2.30;1.10;;;17.00;71.80;;;;;;5118786;28;20408;-42
2021/11/02 09:48:35;;;;;;;4.03;1.00;;;17.20;71.10;;;;;;5101520;28;20773;-42
2021/11/02 09:51:19;;;;;;;2.30;1.33;;;17.40;70.40;;;;;;5083111;28;20426;-41
2021/11/02 09:54:05;;;;;;;3.30;1.30;;;17.50;69.60;;;;;;5118995;28;20422;-41
2021/11/02 09:57:12;;;;;;;1.60;1.00;;;17.60;68.30;;;;;;5119342;28;20412;-41
2021/11/02 10:00:22;;;;;;;2.50;1.50;;;17.60;68.60;;;;;;5077728;28;20538;-41
2021/11/02 10:03:27;;;;;;;2.10;1.67;;;17.50;68.60;;;;;;5100193;28;20505;-39
2021/11/02 10:06:15;;;;;;;3.83;2.17;;;17.50;68.40;;;;;;5099530;28;20516;-43
2021/11/02 10:08:55;;;;;;;3.67;2.93;;;17.40;68.70;;;;;;5099985;28;20429;-41
2021/11/02 10:11:35;;;;;;;4.97;3.00;;;17.40;68.90;;;;;;5100412;28;20448;-40
2021/11/02 10:14:17;;;;;;;3.20;2.90;;;17.40;69.00;;;;;;5117186;28;20421;-42
2021/11/02 10:16:51;;;;;;;3.00;2.30;;;17.40;68.90;;;;;;5117351;28;20459;-43
2021/11/02 10:19:32;;;;;;;2.40;2.07;;;17.30;68.50;;;;;;5116241;28;20862;-42
2021/11/02 10:22:22;;;;;;;2.70;2.10;;;17.30;68.90;;;;;;5116808;28;20490;-41
2021/11/02 10:25:13;;;;;;;2.97;2.40;;;17.30;69.10;;;;;;5118485;28;20448;-40
2021/11/02 10:28:20;;;;;;;3.57;1.67;;;17.30;68.90;;;;;;5119096;28;20915;-41
2021/11/02 10:30:49;;;;;;;4.17;2.10;;;17.30;68.90;;;;;;5096714;28;20899;-41
2021/11/02 10:33:33;;;;;;;3.03;1.77;;;17.40;68.50;;;;;;5094552;28;20496;-42
2021/11/02 10:36:27;;;;;;;3.70;1.67;;;17.40;68.60;;;;;;5096422;28;20415;-41
2021/11/02 10:39:22;;;;;;;2.60;1.40;;;17.60;68.40;;;;;;5096091;28;20419;-40
2021/11/02 10:41:59;;;;;;;5.03;2.07;;;17.70;67.90;;;;;;5096372;28;20461;-41
2021/11/02 10:44:33;;;;;;;1.77;1.40;;;17.80;67.50;;;;;;5076041;28;20481;-46
2021/11/02 10:47:17;;;;;;;2.30;1.50;;;17.90;67.10;;;;;;5096321;28;20704;-44
2021/11/02 10:50:01;;;;;;;1.47;1.33;;;17.90;65.30;;;;;;5095875;28;20466;-44
2021/11/02 10:52:27;;;;;;;2.57;1.23;;;17.70;64.50;;;;;;5096774;28;20434;-43
2021/11/02 10:55:28;;;;;;;2.40;1.63;;;17.40;64.90;;;;;;5095642;28;20461;-45
2021/11/02 10:58:01;;;;;;;1.77;1.23;;;17.10;65.90;;;;;;5080921;28;20440;-42
2021/11/02 11:00:27;;;;;;;2.37;1.40;;;16.70;66.30;;;;;;5095815;28;20444;-41
2021/11/02 11:02:56;;;;;;;3.30;1.40;;;16.40;67.20;;;;;;5094174;28;20753;-43
2021/11/02 11:05:26;;;;;;;1.90;1.40;;;16.30;67.80;;;;;;5094257;28;20431;-42
2021/11/02 11:07:53;;;;;;;2.13;1.37;;;16.20;68.20;;;;;;5095748;28;20769;-41
2021/11/02 11:10:23;;;;;;;2.30;1.50;;;16.40;68.70;;;;;;5094434;28;20480;-41
2021/11/02 11:12:51;;;;;;;2.20;1.43;;;16.70;68.90;;;;;;5095144;28;20452;-41
2021/11/02 11:15:18;;;;;;;1.80;1.43;;;17.20;68.40;;;;;;5095370;28;20427;-43
2021/11/02 11:17:50;;;;;;;1.53;1.23;;;17.60;67.20;;;;;;5095448;28;20425;-44
2021/11/02 11:20:17;;;;;;;1.87;1.10;;;17.80;66.00;;;;;;5096191;28;20428;-42
2021/11/02 11:22:49;;;;;;;2.10;1.60;;;18.00;65.30;;;;;;5095230;28;20516;-43
2021/11/02 11:25:29;;;;;;;2.37;1.83;;;18.20;65.10;;;;;;5096286;28;20426;-43
2021/11/02 11:27:58;;;;;;;2.60;1.50;;;18.40;64.90;;;;;;5095796;28;20485;-41
2021/11/02 11:30:35;;;;;;;2.47;1.40;;;18.70;64.20;;;;;;5081280;28;20465;-43
2021/11/02 11:33:09;;;;;;;1.57;1.17;;;18.90;62.90;;;;;;5120153;28;20437;-43
2021/11/02 11:35:45;;;;;;;1.40;1.10;;;19.20;62.40;;;;;;5084799;28;20555;-43
2021/11/02 11:38:13;;;;;;;1.93;1.53;;;19.50;61.80;;;;;;5101778;28;20888;-43
2021/11/02 11:40:41;;;;;;;1.60;1.20;;;19.90;61.00;;;;;;5117399;28;20839;-43
2021/11/02 11:43:11;;;;;;;1.70;0.90;;;19.90;59.50;;;;;;5119152;28;20576;-42
2021/11/02 11:45:41;;;;;;;1.20;0.80;;;19.80;59.30;;;;;;5117686;28;20406;-43
2021/11/02 11:48:20;;;;;;;1.30;1.00;;;19.40;59.20;;;;;;5101171;28;20552;-43
2021/11/02 11:50:48;;;;;;;1.43;0.97;;;19.10;59.50;;;;;;5118442;28;20423;-40
2021/11/02 11:53:20;;;;;;;1.43;0.63;;;18.70;59.80;;;;;;5118405;28;20875;-42
2021/11/02 11:55:49;;;;;;;3.40;1.17;;;18.30;60.40;;;;;;5119106;28;20413;-42
2021/11/02 11:58:20;;;;;;;1.20;0.70;;;18.10;61.40;;;;;;5117491;28;20437;-42
2021/11/02 12:01:06;;;;;;;1.00;0.60;;;18.00;61.80;;;;;;5119251;28;20424;-43
2021/11/02 12:03:53;;;;;;;1.63;0.60;;;17.90;62.00;;;;;;5101264;28;20603;-41
2021/11/02 12:06:48;;;;;;;1.63;1.00;;;17.70;61.70;;;;;;5119419;28;20456;-41
2021/11/02 12:09:21;;;;;;;1.20;0.50;;;17.50;62.20;;;;;;5034606;28;20456;-43
2021/11/02 12:12:01;;;;;;;1.23;0.60;;;17.20;62.50;;;;;;5115452;28;20468;-41
2021/11/02 12:14:27;;;;;;;0.90;0.47;;;16.90;62.80;;;;;;5118944;28;20416;-42
2021/11/02 12:17:03;;;;;;;1.30;0.57;;;16.60;63.00;;;;;;5083983;28;20442;-41
2021/11/02 12:19:38;;;;;;;0.90;0.40;;;16.50;63.70;;;;;;5100020;28;20421;-42
2021/11/02 12:22:14;;;;;;;1.17;0.67;;;16.40;64.10;;;;;;5101656;28;20529;-41
2021/11/02 12:25:07;;;;;;;1.20;0.40;;;16.40;63.60;;;;;;5103074;28;20480;-42
2021/11/02 12:27:41;;;;;;;0.90;0.40;;;16.50;63.30;;;;;;5056613;28;20435;-41
2021/11/02 12:30:16;;;;;;;0.90;0.50;;;16.50;61.30;;;;;;5056366;28;20516;-42
2021/11/02 12:32:57;;;;;;;1.17;0.60;;;16.50;60.40;;;;;;5040299;28;20443;-41
2021/11/02 12:35:45;;;;;;;2.13;0.63;;;16.60;60.40;;;;;;5057943;28;20884;-42
2021/11/02 12:38:11;;;;;;;0.90;0.53;;;16.90;60.30;;;;;;5055732;28;20441;-43
2021/11/02 12:40:39;;;;;;;0.93;0.47;;;17.80;60.10;;;;;;5039393;28;20536;-45
2021/11/02 12:43:26;;;;;;;0.70;0.30;;;19.90;58.90;;;;;;5037965;28;20339;-43
2021/11/02 12:45:53;;;;;;;1.00;0.40;;;23.00;54.90;;;;;;5054709;28;20409;-44
2021/11/02 12:48:23;;;;;;;0.97;0.40;;;25.80;50.10;;;;;;5055561;28;20886;-42
2021/11/02 12:50:50;;;;;;;1.53;0.57;;;28.40;44.40;;;;;;5055727;28;20418;-42
2021/11/02 12:53:17;;;;;;;1.10;0.50;;;30.30;40.30;;;;;;5038711;28;20442;-41
2021/11/02 12:55:45;;;;;;;1.00;0.53;;;30.50;37.70;;;;;;5038944;28;20437;-41
2021/11/02 12:58:11;;;;;;;1.20;0.57;;;29.60;37.00;;;;;;5068490;28;20449;-42
2021/11/02 13:00:59;;;;;;;1.80;0.77;;;28.50;37.30;;;;;;5119485;28;20414;-44
2021/11/02 13:03:30;;;;;;;1.23;0.73;;;26.70;38.20;;;;;;5119561;28;20353;-41
2021/11/02 13:06:06;;;;;;;1.97;1.10;;;25.00;40.10;;;;;;5116889;28;20508;-42
2021/11/02 13:08:35;;;;;;;3.00;1.40;;;23.40;41.40;;;;;;5100387;28;20430;-42
2021/11/02 13:11:13;;;;;;;1.77;1.13;;;22.00;43.10;;;;;;5118160;28;20532;-42
2021/11/02 13:14:01;;;;;;;1.40;0.80;;;20.80;45.20;;;;;;5083544;28;20429;-43
2021/11/02 13:16:29;;;;;;;1.00;0.50;;;19.60;46.20;;;;;;5118128;28;20951;-43
2021/11/02 13:18:55;;;;;;;1.50;0.73;;;18.70;47.70;;;;;;5101069;28;20867;-42
2021/11/02 13:21:29;;;;;;;1.30;0.40;;;18.00;49.40;;;;;;5117628;28;20422;-43
2021/11/02 13:24:00;;;;;;;1.00;0.40;;;17.40;50.60;;;;;;5117431;28;20217;-41
2021/11/02 13:26:26;;;;;;;1.50;0.40;;;16.90;51.50;;;;;;5116531;28;20907;-41
2021/11/02 13:28:54;;;;;;;1.00;0.40;;;16.50;52.40;;;;;;5116564;28;20493;-42
2021/11/02 13:31:29;;;;;;;1.73;0.50;;;16.20;53.40;;;;;;5097803;28;20468;-42
2021/11/02 13:34:49;;;;;;;0.83;0.30;;;16.00;53.60;;;;;;5116265;28;20448;-43
2021/11/02 13:37:15;;;;;;;1.20;0.70;;;15.70;53.70;;;;;;5101234;28;20437;-42
2021/11/02 13:39:55;;;;;;;0.80;0.30;;;15.50;54.40;;;;;;5115895;28;20495;-42
2021/11/02 13:42:44;;;;;;;0.90;0.50;;;15.10;55.00;;;;;;5099502;28;20505;-41
2021/11/02 13:45:12;;;;;;;0.80;0.30;;;14.80;55.50;;;;;;5079009;28;20456;-43
2021/11/02 13:47:40;;;;;;;1.03;0.40;;;14.60;55.60;;;;;;5117363;28;20413;-40
2021/11/02 13:50:07;;;;;;;1.30;0.60;;;14.40;55.90;;;;;;5116917;28;20414;-42
2021/11/02 13:52:33;;;;;;;2.90;0.40;;;14.30;56.40;;;;;;5117835;28;20494;-45
2021/11/02 13:55:01;;;;;;;0.87;0.33;;;14.50;56.80;;;;;;5118370;28;20633;-43
2021/11/02 13:57:30;;;;;;;0.80;0.40;;;15.40;56.60;;;;;;5117090;28;20594;-44
2021/11/02 13:59:55;;;;;;;0.70;0.30;;;16.60;55.60;;;;;;5117844;28;20449;-43
2021/11/02 14:02:23;;;;;;;1.80;0.70;;;18.60;53.90;;;;;;5082033;28;20486;-43
2021/11/02 14:04:50;;;;;;;1.10;0.60;;;21.00;50.90;;;;;;5098509;28;20189;-43
2021/11/02 14:07:19;;;;;;;1.63;0.70;;;22.40;47.60;;;;;;5117117;28;20496;-42
2021/11/02 14:09:50;;;;;;;1.20;0.63;;;23.30;45.90;;;;;;5098198;28;20422;-45
2021/11/02 14:12:39;;;;;;;1.00;0.47;;;24.10;44.30;;;;;;5116924;28;20513;-43
2021/11/02 14:15:10;;;;;;;3.63;0.77;;;23.60;43.10;;;;;;5098385;28;20429;-42
2021/11/02 14:17:44;;;;;;;1.23;0.70;;;22.70;43.20;;;;;;5115592;28;20406;-44
2021/11/02 14:20:33;;;;;;;1.20;0.60;;;21.60;43.90;;;;;;5115255;28;20805;-45
2021/11/02 14:23:00;;;;;;;0.90;0.40;;;20.30;45.40;;;;;;5115130;28;20464;-42
2021/11/02 14:25:36;;;;;;;1.30;0.60;;;19.40;46.50;;;;;;5098254;28;20532;-42
2021/11/02 14:28:06;;;;;;;1.10;0.53;;;18.70;47.80;;;;;;5116548;28;20447;-41
2021/11/02 14:30:40;;;;;;;1.00;0.43;;;18.10;48.90;;;;;;5116079;28;20466;-43
2021/11/02 14:33:18;;;;;;;1.63;0.60;;;17.60;49.90;;;;;;5099097;28;20431;-42
2021/11/02 14:35:50;;;;;;;1.10;0.70;;;17.30;50.70;;;;;;5082585;28;20457;-43
2021/11/02 14:38:19;;;;;;;1.47;0.50;;;17.00;51.30;;;;;;5116067;28;20449;-42
2021/11/02 14:40:49;;;;;;;1.20;0.47;;;16.80;51.90;;;;;;5099504;28;20438;-41
2021/11/02 14:43:16;;;;;;;1.83;0.53;;;16.60;52.60;;;;;;5116564;28;20742;-42
2021/11/02 14:46:05;;;;;;;1.40;0.70;;;16.40;53.10;;;;;;5115332;28;20812;-42
2021/11/02 14:48:39;;;;;;;1.17;0.60;;;15.90;53.60;;;;;;5107171;28;20508;-42
2021/11/02 14:51:17;;;;;;;1.00;0.43;;;15.60;54.40;;;;;;5117972;28;20437;-42
2021/11/02 14:53:44;;;;;;;1.30;0.40;;;15.30;54.60;;;;;;5115697;28;20417;-43
2021/11/02 14:56:15;;;;;;;1.93;0.60;;;14.90;55.20;;;;;;5117555;28;20441;-42
2021/11/02 14:58:41;;;;;;;1.10;0.70;;;14.70;55.90;;;;;;5117872;28;20409;-43
2021/11/02 15:01:07;;;;;;;1.07;0.50;;;14.50;56.20;;;;;;5118322;28;20429;-44
2021/11/02 15:03:33;;;;;;;0.90;0.30;;;14.30;56.70;;;;;;5097767;28;20628;-43
2021/11/02 15:06:12;;;;;;;1.00;0.50;;;14.10;57.30;;;;;;5114701;28;20457;-42
2021/11/02 15:08:43;;;;;;;1.00;0.43;;;13.90;58.00;;;;;;5116181;28;20410;-43
2021/11/02 15:11:14;;;;;;;1.00;0.50;;;13.60;58.40;;;;;;5116815;28;20452;-44
2021/11/02 15:13:49;;;;;;;1.37;0.50;;;13.40;59.10;;;;;;5082894;28;20803;-42
2021/11/02 15:16:16;;;;;;;1.00;0.40;;;13.10;59.80;;;;;;5116318;28;20450;-42
2021/11/02 15:18:47;;;;;;;1.97;0.40;;;12.90;60.50;;;;;;5117201;28;20406;-43
2021/11/02 15:21:21;;;;;;;1.37;0.70;;;12.60;62.00;;;;;;5117338;28;20441;-41
2021/11/02 15:23:51;;;;;;;1.83;0.50;;;12.40;63.70;;;;;;5117498;28;20545;-43
2021/11/02 15:26:18;;;;;;;2.63;0.60;;;12.30;66.00;;;;;;5115420;28;20482;-41
2021/11/02 15:28:50;;;;;;;1.47;0.70;;;12.40;68.60;;;;;;5097814;28;21059;-40
2021/11/02 15:31:36;;;;;;;1.10;0.70;;;12.80;70.80;;;;;;5115845;28;20465;-40
2021/11/02 15:34:12;;;;;;;1.30;0.83;;;13.20;71.10;;;;;;5097729;28;20422;-42
2021/11/02 15:36:41;;;;;;;1.83;0.63;;;13.40;71.10;;;;;;5115343;28;20442;-41
2021/11/02 15:39:07;;;;;;;1.50;0.80;;;13.40;70.80;;;;;;5114164;28;20773;-41
2021/11/02 15:41:34;;;;;;;1.40;0.50;;;13.30;70.40;;;;;;5114643;28;20445;-42
2021/11/02 15:44:08;;;;;;;1.13;0.70;;;13.10;70.90;;;;;;5114494;28;20477;-45
2021/11/02 15:46:40;;;;;;;1.37;0.80;;;12.90;72.40;;;;;;5113916;28;20420;-41
2021/11/02 15:49:07;;;;;;;2.00;1.00;;;12.70;72.90;;;;;;5114563;28;20843;-41
2021/11/02 15:51:38;;;;;;;1.47;0.97;;;12.40;74.30;;;;;;5115959;28;20417;-42
2021/11/02 15:54:12;;;;;;;1.37;0.90;;;12.20;75.90;;;;;;5098433;28;20861;-44
2021/11/02 15:56:38;;;;;;;1.83;0.90;;;12.00;77.90;;;;;;5116952;28;20425;-43
2021/11/02 15:59:06;;;;;;;1.20;0.90;;;11.80;79.50;;;;;;5117031;28;20440;-43
2021/11/02 16:01:52;;;;;;;1.40;0.93;;;11.70;81.20;;;;;;5080911;28;20418;-42
2021/11/02 16:04:24;;;;;;;2.03;1.17;;;11.50;82.80;;;;;;5116022;28;20508;-43
2021/11/02 16:07:11;;;;;;;1.30;1.03;;;11.30;84.10;;;;;;5115867;28;20417;-42
2021/11/02 16:09:54;;;;;;;2.33;1.20;;;11.20;85.20;;;;;;5115221;28;20428;-42
2021/11/02 16:12:23;;;;;;;2.63;1.33;;;11.10;86.70;;;;;;5115610;28;20410;-41
2021/11/02 16:14:51;;;;;;;4.60;1.30;;;10.90;87.70;;;;;;5115248;28;20822;-42
2021/11/02 16:17:18;;;;;;;1.30;1.00;;;10.80;88.70;;;;;;5099749;28;20516;-44
2021/11/02 16:19:46;;;;;;;4.03;1.40;;;10.70;89.50;;;;;;5118394;28;20433;-42
2021/11/02 16:22:12;;;;;;;1.93;1.50;;;10.60;90.00;;;;;;5103491;28;20418;-43
2021/11/02 16:24:39;;;;;;;2.90;1.20;;;10.50;90.30;;;;;;5100204;28;20469;-42
2021/11/02 16:27:21;;;;;;;1.93;1.30;;;10.50;90.60;;;;;;5118987;28;20267;-44
2021/11/02 16:29:51;;;;;;;1.73;1.60;;;10.40;90.90;;;;;;5101221;28;20437;-42
2021/11/02 16:32:24;;;;;;;2.37;2.03;;;10.30;91.10;;;;;;5099391;28;20444;-43
2021/11/02 16:34:50;;;;;;;2.67;2.10;;;10.30;91.40;;;;;;5117042;28;20732;-43
2021/11/02 16:37:34;;;;;;;2.30;2.10;;;10.20;91.50;;;;;;5116132;28;20418;-42
2021/11/02 16:40:27;;;;;;;1.80;1.50;;;10.20;91.70;;;;;;5114129;28;20431;-46
2021/11/02 16:43:04;;;;;;;1.83;1.63;;;10.20;91.90;;;;;;5115884;28;20506;-46
2021/11/02 16:45:35;;;;;;;1.50;1.30;;;10.20;92.00;;;;;;5095125;28;20704;-45
2021/11/02 16:48:04;;;;;;;3.03;1.60;;;10.20;92.00;;;;;;5100441;28;20919;-46
2021/11/02 16:50:35;;;;;;;4.97;2.43;;;10.10;92.00;;;;;;5118204;28;20460;-45
2021/11/02 16:53:28;;;;;;;4.17;3.10;;;10.20;92.00;;;;;;5105690;28;20524;-45
2021/11/02 16:55:54;;;;;;;7.33;5.27;;;10.20;92.10;;;;;;5092902;28;20454;-46
2021/11/02 16:58:21;;;;;;;6.63;5.70;;;10.20;92.10;;;;;;5112787;28;20445;-46
2021/11/02 17:00:48;;;;;;;7.37;6.00;;;10.20;92.20;;;;;;5095426;28;20556;-46
2021/11/02 17:03:15;;;;;;;9.50;6.00;;;10.10;92.30;;;;;;5093973;28;20466;-45
2021/11/02 17:05:42;;;;;;;7.53;5.30;;;10.10;92.30;;;;;;5113087;28;20437;-45
2021/11/02 17:08:10;;;;;;;7.80;4.90;;;10.10;92.30;;;;;;5117090;28;20413;-46
2021/11/02 17:10:47;;;;;;;7.03;5.87;;;10.10;92.40;;;;;;5096701;28;20537;-48
2021/11/02 17:13:20;;;;;;;5.47;4.57;;;10.00;92.40;;;;;;5080543;28;20529;-46
2021/11/02 17:15:52;;;;;;;5.37;4.50;;;10.00;92.50;;;;;;5097860;28;20981;-46
2021/11/02 17:18:24;;;;;;;5.93;4.40;;;10.00;92.60;;;;;;5078879;28;20431;-46
2021/11/02 17:21:02;;;;;;;5.27;3.90;;;9.90;93.30;;;;;;5078667;28;20448;-45
2021/11/02 17:23:30;;;;;;;6.67;4.90;;;9.90;93.50;;;;;;5095833;28;20469;-46
2021/11/02 17:26:02;;;;;;;4.67;3.30;;;9.80;93.50;;;;;;5079293;28;21084;-45
2021/11/02 17:28:28;;;;;;;3.97;3.20;;;9.80;93.60;;;;;;5095097;28;20837;-46
2021/11/02 17:30:54;;;;;;;4.03;3.37;;;9.80;93.80;;;;;;5097515;28;20473;-45
2021/11/02 17:33:20;;;;;;;3.73;2.47;;;9.80;93.80;;;;;;5096489;28;20559;-45
2021/11/02 17:35:57;;;;;;;3.00;2.20;;;9.70;93.90;;;;;;5097991;28;20396;-46
2021/11/02 17:38:24;;;;;;;2.73;2.13;;;9.70;93.90;;;;;;5098624;28;20193;-46
2021/11/02 17:40:53;;;;;;;3.30;2.00;;;9.70;94.00;;;;;;5080979;28;20450;-46
2021/11/02 17:43:22;;;;;;;2.27;1.77;;;9.60;94.10;;;;;;5099295;28;20798;-46
2021/11/02 17:45:48;;;;;;;2.00;1.50;;;9.60;94.10;;;;;;5081000;28;20426;-46
2021/11/02 17:48:15;;;;;;;2.33;1.67;;;9.50;94.10;;;;;;5064135;28;20768;-46
2021/11/02 17:50:42;;;;;;;2.37;1.87;;;9.50;94.10;;;;;;5080059;28;20443;-45
2021/11/02 17:53:08;;;;;;;2.13;1.70;;;9.40;94.00;;;;;;5098400;28;20419;-45
2021/11/02 17:55:35;;;;;;;2.70;2.00;;;9.30;94.00;;;;;;5101617;28;20735;-46
2021/11/02 17:58:03;;;;;;;2.90;2.07;;;9.30;94.00;;;;;;5117806;28;20429;-46
2021/11/02 18:00:29;;;;;;;3.33;2.43;;;9.20;94.00;;;;;;5101525;28;20498;-45
2021/11/02 18:02:56;;;;;;;3.20;2.43;;;9.20;93.90;;;;;;5100536;28;20473;-45
2021/11/02 18:05:32;;;;;;;2.50;2.30;;;9.10;93.90;;;;;;5115982;28;20445;-45
2021/11/02 18:08:02;;;;;;;2.87;2.57;;;9.10;94.00;;;;;;5098732;28;20432;-45
2021/11/02 18:10:33;;;;;;;6.33;4.17;;;9.00;94.00;;;;;;5081457;28;20418;-46
2021/11/02 18:12:59;;;;;;;6.97;6.27;;;9.00;94.10;;;;;;5099096;28;20451;-46
2021/11/02 18:15:25;;;;;;;8.80;7.67;;;8.90;94.10;;;;;;5116908;28;20840;-44
2021/11/02 18:17:53;;;;;;;8.83;7.93;;;8.80;94.20;;;;;;5115787;28;20198;-45
2021/11/02 18:20:21;;;;;;;7.30;6.60;;;8.80;94.20;;;;;;5115689;28;20541;-45
2021/11/02 18:22:50;;;;;;;8.30;5.83;;;8.80;94.20;;;;;;5080863;28;20495;-45
2021/11/02 18:25:21;;;;;;;5.07;4.57;;;8.70;94.20;;;;;;5115639;28;20436;-45
2021/11/02 18:27:48;;;;;;;4.33;3.60;;;8.70;94.20;;;;;;5114716;28;20414;-45
2021/11/02 18:30:16;;;;;;;4.07;3.57;;;8.60;94.10;;;;;;5116610;28;20752;-46